sensor_id;sensor_type;location;lat;lon;timestamp;P1;durP1;ratioP1;P2;durP2;ratioP2
4138;SDS011;2083;51.034;6.996;2022-09-09T00:00:28;1.83;;;1.73;;
4138;SDS011;2083;51.034;6.996;2022-09-09T00:05:29;3.90;;;1.63;;
4138;SDS011;2083;51.034;6.996;2022-09-09T00:07:58;4.03;;;1.97;;
4138;SDS011;2083;51.034;6.996;2022-09-09T00:15:39;2.27;;;1.70;;
4138;SDS011;2083;51.034;6.996;2022-09-09T00:20:45;4.77;;;1.87;;
4138;SDS011;2083;51.034;6.996;2022-09-09T00:25:52;1.50;;;1.40;;
4138;SDS011;2083;51.034;6.996;2022-09-09T00:28:20;1.73;;;1.53;;
4138;SDS011;2083;51.034;6.996;2022-09-09T00:30:48;3.90;;;1.37;;
4138;SDS011;2083;51.034;6.996;2022-09-09T00:33:15;2.53;;;1.47;;
4138;SDS011;2083;51.034;6.996;2022-09-09T00:35:44;4.20;;;1.60;;
4138;SDS011;2083;51.034;6.996;2022-09-09T00:38:55;2.80;;;1.10;;
4138;SDS011;2083;51.034;6.996;2022-09-09T00:41:06;4.20;;;1.57;;
4138;SDS011;2083;51.034;6.996;2022-09-09T00:43:36;1.80;;;1.33;;
4138;SDS011;2083;51.034;6.996;2022-09-09T00:46:15;8.53;;;1.80;;
4138;SDS011;2083;51.034;6.996;2022-09-09T00:54:25;2.13;;;1.27;;
4138;SDS011;2083;51.034;6.996;2022-09-09T00:57:38;4.60;;;2.27;;
4138;SDS011;2083;51.034;6.996;2022-09-09T00:59:52;2.07;;;1.13;;
4138;SDS011;2083;51.034;6.996;2022-09-09T01:04:44;4.23;;;1.40;;
4138;SDS011;2083;51.034;6.996;2022-09-09T01:07:13;2.80;;;1.43;;
4138;SDS011;2083;51.034;6.996;2022-09-09T01:12:16;1.43;;;1.33;;
4138;SDS011;2083;51.034;6.996;2022-09-09T01:14:43;3.00;;;1.30;;
4138;SDS011;2083;51.034;6.996;2022-09-09T01:22:28;4.43;;;1.53;;
4138;SDS011;2083;51.034;6.996;2022-09-09T01:27:34;4.00;;;1.07;;
4138;SDS011;2083;51.034;6.996;2022-09-09T01:30:02;4.00;;;1.53;;
4138;SDS011;2083;51.034;6.996;2022-09-09T01:37:56;3.67;;;1.10;;
4138;SDS011;2083;51.034;6.996;2022-09-09T01:40:22;1.80;;;1.00;;
4138;SDS011;2083;51.034;6.996;2022-09-09T01:42:48;6.10;;;1.03;;
4138;SDS011;2083;51.034;6.996;2022-09-09T01:45:14;3.23;;;0.97;;
4138;SDS011;2083;51.034;6.996;2022-09-09T01:47:40;2.57;;;1.37;;
4138;SDS011;2083;51.034;6.996;2022-09-09T01:50:06;1.50;;;0.93;;
4138;SDS011;2083;51.034;6.996;2022-09-09T01:52:33;1.33;;;0.93;;
4138;SDS011;2083;51.034;6.996;2022-09-09T01:55:00;2.73;;;1.20;;
4138;SDS011;2083;51.034;6.996;2022-09-09T01:57:27;3.17;;;1.30;;
4138;SDS011;2083;51.034;6.996;2022-09-09T02:02:32;4.13;;;1.17;;
4138;SDS011;2083;51.034;6.996;2022-09-09T02:07:47;2.23;;;1.33;;
4138;SDS011;2083;51.034;6.996;2022-09-09T02:10:20;1.50;;;1.03;;
4138;SDS011;2083;51.034;6.996;2022-09-09T02:12:50;1.40;;;1.00;;
4138;SDS011;2083;51.034;6.996;2022-09-09T02:15:23;2.13;;;1.10;;
4138;SDS011;2083;51.034;6.996;2022-09-09T02:17:52;4.40;;;1.30;;
4138;SDS011;2083;51.034;6.996;2022-09-09T02:20:20;2.40;;;1.17;;
4138;SDS011;2083;51.034;6.996;2022-09-09T02:22:47;1.47;;;1.37;;
4138;SDS011;2083;51.034;6.996;2022-09-09T02:25:15;5.50;;;0.87;;
4138;SDS011;2083;51.034;6.996;2022-09-09T02:27:43;1.53;;;1.40;;
4138;SDS011;2083;51.034;6.996;2022-09-09T02:30:10;5.93;;;1.13;;
4138;SDS011;2083;51.034;6.996;2022-09-09T02:32:37;2.30;;;1.10;;
4138;SDS011;2083;51.034;6.996;2022-09-09T02:35:11;5.20;;;1.07;;
4138;SDS011;2083;51.034;6.996;2022-09-09T02:37:39;1.20;;;1.20;;
4138;SDS011;2083;51.034;6.996;2022-09-09T02:40:07;2.07;;;1.40;;
4138;SDS011;2083;51.034;6.996;2022-09-09T02:42:41;1.10;;;1.07;;
4138;SDS011;2083;51.034;6.996;2022-09-09T02:45:07;1.33;;;1.10;;
4138;SDS011;2083;51.034;6.996;2022-09-09T02:47:34;3.30;;;1.10;;
4138;SDS011;2083;51.034;6.996;2022-09-09T02:52:45;1.20;;;1.10;;
4138;SDS011;2083;51.034;6.996;2022-09-09T02:55:18;3.57;;;1.50;;
4138;SDS011;2083;51.034;6.996;2022-09-09T02:57:46;1.37;;;1.30;;
4138;SDS011;2083;51.034;6.996;2022-09-09T03:00:13;1.53;;;1.40;;
4138;SDS011;2083;51.034;6.996;2022-09-09T03:02:39;3.27;;;1.33;;
4138;SDS011;2083;51.034;6.996;2022-09-09T03:05:07;2.03;;;1.10;;
4138;SDS011;2083;51.034;6.996;2022-09-09T03:07:33;1.67;;;1.57;;
4138;SDS011;2083;51.034;6.996;2022-09-09T03:09:59;1.90;;;1.70;;
4138;SDS011;2083;51.034;6.996;2022-09-09T03:12:25;4.33;;;1.17;;
4138;SDS011;2083;51.034;6.996;2022-09-09T03:14:51;3.13;;;1.30;;
4138;SDS011;2083;51.034;6.996;2022-09-09T03:17:17;2.77;;;1.33;;
4138;SDS011;2083;51.034;6.996;2022-09-09T03:19:43;7.83;;;1.40;;
4138;SDS011;2083;51.034;6.996;2022-09-09T03:22:09;2.90;;;1.43;;
4138;SDS011;2083;51.034;6.996;2022-09-09T03:24:36;3.10;;;1.40;;
4138;SDS011;2083;51.034;6.996;2022-09-09T03:27:02;1.70;;;1.53;;
4138;SDS011;2083;51.034;6.996;2022-09-09T03:29:28;3.67;;;1.47;;
4138;SDS011;2083;51.034;6.996;2022-09-09T03:31:54;1.93;;;1.83;;
4138;SDS011;2083;51.034;6.996;2022-09-09T03:34:20;5.47;;;1.23;;
4138;SDS011;2083;51.034;6.996;2022-09-09T03:36:46;4.17;;;1.63;;
4138;SDS011;2083;51.034;6.996;2022-09-09T03:39:14;2.07;;;1.63;;
4138;SDS011;2083;51.034;6.996;2022-09-09T03:41:40;2.47;;;1.40;;
4138;SDS011;2083;51.034;6.996;2022-09-09T03:44:06;3.13;;;1.40;;
4138;SDS011;2083;51.034;6.996;2022-09-09T03:46:32;5.63;;;1.27;;
4138;SDS011;2083;51.034;6.996;2022-09-09T03:48:58;3.63;;;1.50;;
4138;SDS011;2083;51.034;6.996;2022-09-09T03:51:25;5.77;;;1.33;;
4138;SDS011;2083;51.034;6.996;2022-09-09T03:53:51;2.20;;;1.60;;
4138;SDS011;2083;51.034;6.996;2022-09-09T03:56:19;1.30;;;1.20;;
4138;SDS011;2083;51.034;6.996;2022-09-09T03:58:46;1.40;;;1.07;;
4138;SDS011;2083;51.034;6.996;2022-09-09T04:01:12;1.83;;;1.23;;
4138;SDS011;2083;51.034;6.996;2022-09-09T04:03:40;1.63;;;1.23;;
4138;SDS011;2083;51.034;6.996;2022-09-09T04:06:12;6.47;;;1.63;;
4138;SDS011;2083;51.034;6.996;2022-09-09T04:08:39;2.00;;;1.30;;
4138;SDS011;2083;51.034;6.996;2022-09-09T04:11:06;3.37;;;1.30;;
4138;SDS011;2083;51.034;6.996;2022-09-09T04:13:35;4.23;;;1.40;;
4138;SDS011;2083;51.034;6.996;2022-09-09T04:16:02;3.83;;;1.30;;
4138;SDS011;2083;51.034;6.996;2022-09-09T04:18:28;1.53;;;1.33;;
4138;SDS011;2083;51.034;6.996;2022-09-09T04:20:55;4.50;;;1.50;;
4138;SDS011;2083;51.034;6.996;2022-09-09T04:23:25;3.20;;;1.30;;
4138;SDS011;2083;51.034;6.996;2022-09-09T04:25:52;5.90;;;1.50;;
4138;SDS011;2083;51.034;6.996;2022-09-09T04:28:20;5.07;;;1.50;;
4138;SDS011;2083;51.034;6.996;2022-09-09T04:30:46;2.40;;;1.10;;
4138;SDS011;2083;51.034;6.996;2022-09-09T04:33:13;4.50;;;1.20;;
4138;SDS011;2083;51.034;6.996;2022-09-09T04:35:39;5.10;;;1.67;;
4138;SDS011;2083;51.034;6.996;2022-09-09T04:38:09;2.77;;;1.40;;
4138;SDS011;2083;51.034;6.996;2022-09-09T04:40:35;3.97;;;1.60;;
4138;SDS011;2083;51.034;6.996;2022-09-09T04:43:02;3.20;;;1.70;;
4138;SDS011;2083;51.034;6.996;2022-09-09T04:45:31;3.60;;;1.50;;
4138;SDS011;2083;51.034;6.996;2022-09-09T04:47:58;4.00;;;1.80;;
4138;SDS011;2083;51.034;6.996;2022-09-09T04:50:24;2.63;;;1.80;;
4138;SDS011;2083;51.034;6.996;2022-09-09T04:52:50;3.87;;;1.40;;
4138;SDS011;2083;51.034;6.996;2022-09-09T04:55:16;2.00;;;1.90;;
4138;SDS011;2083;51.034;6.996;2022-09-09T04:57:42;4.43;;;2.27;;
4138;SDS011;2083;51.034;6.996;2022-09-09T05:00:08;3.03;;;1.87;;
4138;SDS011;2083;51.034;6.996;2022-09-09T05:02:40;5.87;;;1.40;;
4138;SDS011;2083;51.034;6.996;2022-09-09T05:05:07;4.70;;;1.73;;
4138;SDS011;2083;51.034;6.996;2022-09-09T05:07:33;1.70;;;1.30;;
4138;SDS011;2083;51.034;6.996;2022-09-09T05:09:59;9.17;;;2.10;;
4138;SDS011;2083;51.034;6.996;2022-09-09T05:12:25;4.30;;;1.80;;
4138;SDS011;2083;51.034;6.996;2022-09-09T05:14:52;6.40;;;2.17;;
4138;SDS011;2083;51.034;6.996;2022-09-09T05:17:18;8.43;;;2.00;;
4138;SDS011;2083;51.034;6.996;2022-09-09T05:19:44;2.10;;;1.57;;
4138;SDS011;2083;51.034;6.996;2022-09-09T05:22:10;2.50;;;2.07;;
4138;SDS011;2083;51.034;6.996;2022-09-09T05:24:37;1.93;;;1.80;;
4138;SDS011;2083;51.034;6.996;2022-09-09T05:27:03;2.90;;;1.90;;
4138;SDS011;2083;51.034;6.996;2022-09-09T05:29:29;3.70;;;1.60;;
4138;SDS011;2083;51.034;6.996;2022-09-09T05:31:58;6.20;;;2.00;;
4138;SDS011;2083;51.034;6.996;2022-09-09T05:34:24;2.33;;;1.47;;
4138;SDS011;2083;51.034;6.996;2022-09-09T05:36:50;1.83;;;1.43;;
4138;SDS011;2083;51.034;6.996;2022-09-09T05:39:17;1.60;;;1.50;;
4138;SDS011;2083;51.034;6.996;2022-09-09T05:41:43;3.47;;;1.83;;
4138;SDS011;2083;51.034;6.996;2022-09-09T05:44:09;2.50;;;1.70;;
4138;SDS011;2083;51.034;6.996;2022-09-09T05:46:35;1.73;;;1.63;;
4138;SDS011;2083;51.034;6.996;2022-09-09T05:49:01;4.20;;;1.57;;
4138;SDS011;2083;51.034;6.996;2022-09-09T05:51:27;2.37;;;1.60;;
4138;SDS011;2083;51.034;6.996;2022-09-09T05:53:55;1.37;;;1.27;;
4138;SDS011;2083;51.034;6.996;2022-09-09T05:56:24;0.80;;;0.80;;
4138;SDS011;2083;51.034;6.996;2022-09-09T05:58:50;1.40;;;1.40;;
4138;SDS011;2083;51.034;6.996;2022-09-09T06:01:19;2.60;;;1.43;;
4138;SDS011;2083;51.034;6.996;2022-09-09T06:03:46;6.50;;;2.70;;
4138;SDS011;2083;51.034;6.996;2022-09-09T06:06:16;6.43;;;1.90;;
4138;SDS011;2083;51.034;6.996;2022-09-09T06:08:44;9.83;;;1.70;;
4138;SDS011;2083;51.034;6.996;2022-09-09T06:11:11;1.90;;;1.70;;
4138;SDS011;2083;51.034;6.996;2022-09-09T06:13:40;2.70;;;1.70;;
4138;SDS011;2083;51.034;6.996;2022-09-09T06:16:10;2.20;;;1.30;;
4138;SDS011;2083;51.034;6.996;2022-09-09T06:18:37;1.07;;;0.93;;
4138;SDS011;2083;51.034;6.996;2022-09-09T06:21:04;3.30;;;1.27;;
4138;SDS011;2083;51.034;6.996;2022-09-09T06:23:31;1.40;;;1.30;;
4138;SDS011;2083;51.034;6.996;2022-09-09T06:26:07;1.97;;;1.80;;
4138;SDS011;2083;51.034;6.996;2022-09-09T06:28:33;1.60;;;1.50;;
4138;SDS011;2083;51.034;6.996;2022-09-09T06:31:00;3.27;;;2.83;;
4138;SDS011;2083;51.034;6.996;2022-09-09T06:33:26;1.63;;;1.43;;
4138;SDS011;2083;51.034;6.996;2022-09-09T06:35:56;1.10;;;1.00;;
4138;SDS011;2083;51.034;6.996;2022-09-09T06:38:22;8.83;;;2.10;;
4138;SDS011;2083;51.034;6.996;2022-09-09T06:40:54;7.33;;;1.70;;
4138;SDS011;2083;51.034;6.996;2022-09-09T06:43:21;1.93;;;1.70;;
4138;SDS011;2083;51.034;6.996;2022-09-09T06:45:55;1.37;;;1.13;;
4138;SDS011;2083;51.034;6.996;2022-09-09T06:48:22;4.90;;;1.17;;
4138;SDS011;2083;51.034;6.996;2022-09-09T06:50:48;2.33;;;1.20;;
4138;SDS011;2083;51.034;6.996;2022-09-09T06:53:17;4.37;;;1.30;;
4138;SDS011;2083;51.034;6.996;2022-09-09T06:55:46;2.93;;;1.47;;
4138;SDS011;2083;51.034;6.996;2022-09-09T06:58:12;1.00;;;0.90;;
4138;SDS011;2083;51.034;6.996;2022-09-09T07:00:38;4.00;;;1.20;;
4138;SDS011;2083;51.034;6.996;2022-09-09T07:03:04;5.17;;;1.20;;
4138;SDS011;2083;51.034;6.996;2022-09-09T07:05:31;5.17;;;1.20;;
4138;SDS011;2083;51.034;6.996;2022-09-09T07:07:57;1.57;;;0.97;;
4138;SDS011;2083;51.034;6.996;2022-09-09T07:10:23;5.43;;;0.97;;
4138;SDS011;2083;51.034;6.996;2022-09-09T07:12:50;9.83;;;1.27;;
4138;SDS011;2083;51.034;6.996;2022-09-09T07:15:17;3.17;;;1.37;;
4138;SDS011;2083;51.034;6.996;2022-09-09T07:17:43;5.77;;;1.53;;
4138;SDS011;2083;51.034;6.996;2022-09-09T07:20:09;3.13;;;1.00;;
4138;SDS011;2083;51.034;6.996;2022-09-09T07:22:36;2.50;;;1.10;;
4138;SDS011;2083;51.034;6.996;2022-09-09T07:25:02;13.17;;;1.27;;
4138;SDS011;2083;51.034;6.996;2022-09-09T07:27:29;3.10;;;1.20;;
4138;SDS011;2083;51.034;6.996;2022-09-09T07:29:55;2.67;;;0.90;;
4138;SDS011;2083;51.034;6.996;2022-09-09T07:32:22;3.90;;;1.03;;
4138;SDS011;2083;51.034;6.996;2022-09-09T07:34:48;2.53;;;1.00;;
4138;SDS011;2083;51.034;6.996;2022-09-09T07:37:15;7.73;;;1.77;;
4138;SDS011;2083;51.034;6.996;2022-09-09T07:39:42;2.93;;;1.10;;
4138;SDS011;2083;51.034;6.996;2022-09-09T07:42:08;3.90;;;1.33;;
4138;SDS011;2083;51.034;6.996;2022-09-09T07:44:36;5.47;;;1.30;;
4138;SDS011;2083;51.034;6.996;2022-09-09T07:47:04;4.70;;;1.10;;
4138;SDS011;2083;51.034;6.996;2022-09-09T07:49:30;5.03;;;1.60;;
4138;SDS011;2083;51.034;6.996;2022-09-09T07:51:57;5.40;;;1.27;;
4138;SDS011;2083;51.034;6.996;2022-09-09T07:54:23;2.73;;;1.43;;
4138;SDS011;2083;51.034;6.996;2022-09-09T07:56:50;5.37;;;1.17;;
4138;SDS011;2083;51.034;6.996;2022-09-09T07:59:18;3.80;;;0.83;;
4138;SDS011;2083;51.034;6.996;2022-09-09T08:01:49;5.53;;;1.30;;
4138;SDS011;2083;51.034;6.996;2022-09-09T08:04:19;2.30;;;1.00;;
4138;SDS011;2083;51.034;6.996;2022-09-09T08:06:50;6.63;;;1.60;;
4138;SDS011;2083;51.034;6.996;2022-09-09T08:09:18;2.73;;;0.90;;
4138;SDS011;2083;51.034;6.996;2022-09-09T08:11:44;3.53;;;1.17;;
4138;SDS011;2083;51.034;6.996;2022-09-09T08:14:10;10.57;;;1.57;;
4138;SDS011;2083;51.034;6.996;2022-09-09T08:16:39;6.53;;;1.20;;
4138;SDS011;2083;51.034;6.996;2022-09-09T08:19:05;3.13;;;1.30;;
4138;SDS011;2083;51.034;6.996;2022-09-09T08:21:32;6.00;;;1.50;;
4138;SDS011;2083;51.034;6.996;2022-09-09T08:23:59;13.10;;;2.87;;
4138;SDS011;2083;51.034;6.996;2022-09-09T08:26:27;2.63;;;1.00;;
4138;SDS011;2083;51.034;6.996;2022-09-09T08:28:54;16.00;;;3.03;;
4138;SDS011;2083;51.034;6.996;2022-09-09T08:31:31;11.93;;;2.17;;
4138;SDS011;2083;51.034;6.996;2022-09-09T08:33:58;3.37;;;1.13;;
4138;SDS011;2083;51.034;6.996;2022-09-09T08:36:25;7.50;;;1.00;;
4138;SDS011;2083;51.034;6.996;2022-09-09T08:38:52;7.57;;;1.43;;
4138;SDS011;2083;51.034;6.996;2022-09-09T08:43:49;8.23;;;1.43;;
4138;SDS011;2083;51.034;6.996;2022-09-09T08:46:21;2.50;;;1.77;;
4138;SDS011;2083;51.034;6.996;2022-09-09T08:48:58;7.83;;;1.30;;
4138;SDS011;2083;51.034;6.996;2022-09-09T08:51:26;5.30;;;1.30;;
4138;SDS011;2083;51.034;6.996;2022-09-09T08:53:53;14.23;;;1.60;;
4138;SDS011;2083;51.034;6.996;2022-09-09T08:56:23;2.77;;;1.40;;
4138;SDS011;2083;51.034;6.996;2022-09-09T08:58:50;4.17;;;1.23;;
4138;SDS011;2083;51.034;6.996;2022-09-09T09:04:04;4.40;;;1.50;;
4138;SDS011;2083;51.034;6.996;2022-09-09T09:11:39;2.70;;;2.40;;
4138;SDS011;2083;51.034;6.996;2022-09-09T09:14:11;5.90;;;1.23;;
4138;SDS011;2083;51.034;6.996;2022-09-09T09:19:22;6.10;;;1.77;;
4138;SDS011;2083;51.034;6.996;2022-09-09T09:21:53;1.90;;;0.90;;
4138;SDS011;2083;51.034;6.996;2022-09-09T09:24:20;2.47;;;1.10;;
4138;SDS011;2083;51.034;6.996;2022-09-09T09:26:49;2.57;;;0.97;;
4138;SDS011;2083;51.034;6.996;2022-09-09T09:29:17;6.37;;;1.10;;
4138;SDS011;2083;51.034;6.996;2022-09-09T09:31:45;9.20;;;1.10;;
4138;SDS011;2083;51.034;6.996;2022-09-09T09:34:13;2.80;;;1.00;;
4138;SDS011;2083;51.034;6.996;2022-09-09T09:36:40;2.03;;;1.00;;
4138;SDS011;2083;51.034;6.996;2022-09-09T09:39:07;1.77;;;1.17;;
4138;SDS011;2083;51.034;6.996;2022-09-09T09:41:35;4.33;;;1.10;;
4138;SDS011;2083;51.034;6.996;2022-09-09T09:44:03;3.50;;;1.90;;
4138;SDS011;2083;51.034;6.996;2022-09-09T09:46:31;2.80;;;1.10;;
4138;SDS011;2083;51.034;6.996;2022-09-09T09:51:23;2.13;;;1.00;;
4138;SDS011;2083;51.034;6.996;2022-09-09T09:53:50;4.83;;;1.23;;
4138;SDS011;2083;51.034;6.996;2022-09-09T09:56:25;2.43;;;0.90;;
4138;SDS011;2083;51.034;6.996;2022-09-09T09:58:52;6.83;;;1.90;;
4138;SDS011;2083;51.034;6.996;2022-09-09T10:03:53;1.57;;;1.27;;
4138;SDS011;2083;51.034;6.996;2022-09-09T10:06:29;11.50;;;3.20;;
4138;SDS011;2083;51.034;6.996;2022-09-09T10:09:00;2.40;;;1.23;;
4138;SDS011;2083;51.034;6.996;2022-09-09T10:11:48;12.63;;;2.93;;
4138;SDS011;2083;51.034;6.996;2022-09-09T10:14:22;6.20;;;1.37;;
4138;SDS011;2083;51.034;6.996;2022-09-09T10:19:30;3.00;;;1.10;;
4138;SDS011;2083;51.034;6.996;2022-09-09T10:22:12;10.90;;;1.40;;
4138;SDS011;2083;51.034;6.996;2022-09-09T10:30:11;0.90;;;0.70;;
4138;SDS011;2083;51.034;6.996;2022-09-09T10:37:54;2.27;;;0.70;;
4138;SDS011;2083;51.034;6.996;2022-09-09T10:40:33;2.50;;;1.20;;
4138;SDS011;2083;51.034;6.996;2022-09-09T10:48:28;2.10;;;1.10;;
4138;SDS011;2083;51.034;6.996;2022-09-09T10:51:06;1.30;;;0.87;;
4138;SDS011;2083;51.034;6.996;2022-09-09T10:53:58;3.33;;;1.30;;
4138;SDS011;2083;51.034;6.996;2022-09-09T10:56:23;3.87;;;0.80;;
4138;SDS011;2083;51.034;6.996;2022-09-09T10:58:52;1.27;;;1.00;;
4138;SDS011;2083;51.034;6.996;2022-09-09T11:03:54;7.73;;;2.07;;
4138;SDS011;2083;51.034;6.996;2022-09-09T11:06:21;5.57;;;1.23;;
4138;SDS011;2083;51.034;6.996;2022-09-09T11:08:49;1.60;;;0.80;;
4138;SDS011;2083;51.034;6.996;2022-09-09T11:11:25;2.10;;;0.80;;
4138;SDS011;2083;51.034;6.996;2022-09-09T11:13:58;5.50;;;0.70;;
4138;SDS011;2083;51.034;6.996;2022-09-09T11:16:40;1.20;;;0.70;;
4138;SDS011;2083;51.034;6.996;2022-09-09T11:19:19;0.90;;;0.80;;
4138;SDS011;2083;51.034;6.996;2022-09-09T11:21:49;1.93;;;0.70;;
4138;SDS011;2083;51.034;6.996;2022-09-09T11:24:18;2.70;;;1.73;;
4138;SDS011;2083;51.034;6.996;2022-09-09T11:26:57;3.57;;;1.30;;
4138;SDS011;2083;51.034;6.996;2022-09-09T11:34:34;4.80;;;0.80;;
4138;SDS011;2083;51.034;6.996;2022-09-09T11:37:07;4.10;;;1.43;;
4138;SDS011;2083;51.034;6.996;2022-09-09T11:42:21;4.13;;;1.03;;
4138;SDS011;2083;51.034;6.996;2022-09-09T11:44:48;1.30;;;1.20;;
4138;SDS011;2083;51.034;6.996;2022-09-09T11:47:24;2.60;;;0.80;;
4138;SDS011;2083;51.034;6.996;2022-09-09T11:49:54;3.43;;;1.17;;
4138;SDS011;2083;51.034;6.996;2022-09-09T11:52:25;3.40;;;1.50;;
4138;SDS011;2083;51.034;6.996;2022-09-09T11:55:07;2.67;;;2.20;;
4138;SDS011;2083;51.034;6.996;2022-09-09T11:57:34;4.30;;;1.60;;
4138;SDS011;2083;51.034;6.996;2022-09-09T12:00:02;6.83;;;1.53;;
4138;SDS011;2083;51.034;6.996;2022-09-09T12:02:30;5.43;;;1.03;;
4138;SDS011;2083;51.034;6.996;2022-09-09T12:05:07;1.60;;;0.90;;
4138;SDS011;2083;51.034;6.996;2022-09-09T12:12:54;4.83;;;1.50;;
4138;SDS011;2083;51.034;6.996;2022-09-09T12:15:25;3.43;;;1.03;;
4138;SDS011;2083;51.034;6.996;2022-09-09T12:17:54;4.83;;;2.20;;
4138;SDS011;2083;51.034;6.996;2022-09-09T12:20:21;21.10;;;5.57;;
4138;SDS011;2083;51.034;6.996;2022-09-09T12:28:17;4.00;;;0.80;;
4138;SDS011;2083;51.034;6.996;2022-09-09T12:30:56;2.17;;;1.13;;
4138;SDS011;2083;51.034;6.996;2022-09-09T12:33:24;21.10;;;5.93;;
4138;SDS011;2083;51.034;6.996;2022-09-09T12:35:54;22.07;;;6.50;;
4138;SDS011;2083;51.034;6.996;2022-09-09T12:38:37;1.67;;;1.40;;
4138;SDS011;2083;51.034;6.996;2022-09-09T12:41:04;2.23;;;1.60;;
4138;SDS011;2083;51.034;6.996;2022-09-09T12:43:30;13.90;;;4.00;;
4138;SDS011;2083;51.034;6.996;2022-09-09T12:45:59;13.63;;;3.77;;
4138;SDS011;2083;51.034;6.996;2022-09-09T12:48:36;16.13;;;4.60;;
4138;SDS011;2083;51.034;6.996;2022-09-09T12:51:03;5.80;;;2.10;;
4138;SDS011;2083;51.034;6.996;2022-09-09T12:53:35;2.07;;;1.13;;
4138;SDS011;2083;51.034;6.996;2022-09-09T12:56:05;5.40;;;1.30;;
4138;SDS011;2083;51.034;6.996;2022-09-09T12:58:35;12.10;;;3.47;;
4138;SDS011;2083;51.034;6.996;2022-09-09T13:01:03;15.97;;;5.20;;
4138;SDS011;2083;51.034;6.996;2022-09-09T13:03:30;1.83;;;1.47;;
4138;SDS011;2083;51.034;6.996;2022-09-09T13:06:10;5.57;;;1.70;;
4138;SDS011;2083;51.034;6.996;2022-09-09T13:08:36;4.97;;;1.10;;
4138;SDS011;2083;51.034;6.996;2022-09-09T13:11:04;3.97;;;1.30;;
4138;SDS011;2083;51.034;6.996;2022-09-09T13:13:36;4.17;;;1.33;;
4138;SDS011;2083;51.034;6.996;2022-09-09T13:16:04;2.60;;;0.67;;
4138;SDS011;2083;51.034;6.996;2022-09-09T13:18:33;1.50;;;1.40;;
4138;SDS011;2083;51.034;6.996;2022-09-09T13:20:59;2.40;;;0.90;;
4138;SDS011;2083;51.034;6.996;2022-09-09T13:23:36;7.67;;;1.20;;
4138;SDS011;2083;51.034;6.996;2022-09-09T13:28:47;3.20;;;0.90;;
4138;SDS011;2083;51.034;6.996;2022-09-09T13:31:24;2.33;;;0.93;;
4138;SDS011;2083;51.034;6.996;2022-09-09T13:33:53;1.00;;;0.90;;
4138;SDS011;2083;51.034;6.996;2022-09-09T13:36:32;2.20;;;0.90;;
4138;SDS011;2083;51.034;6.996;2022-09-09T13:38:59;6.43;;;1.10;;
4138;SDS011;2083;51.034;6.996;2022-09-09T13:41:30;3.20;;;1.00;;
4138;SDS011;2083;51.034;6.996;2022-09-09T13:43:57;4.20;;;0.90;;
4138;SDS011;2083;51.034;6.996;2022-09-09T13:46:25;4.90;;;1.50;;
4138;SDS011;2083;51.034;6.996;2022-09-09T13:48:59;2.70;;;1.40;;
4138;SDS011;2083;51.034;6.996;2022-09-09T13:51:28;8.47;;;1.80;;
4138;SDS011;2083;51.034;6.996;2022-09-09T13:53:55;3.43;;;1.50;;
4138;SDS011;2083;51.034;6.996;2022-09-09T13:56:22;3.63;;;1.27;;
4138;SDS011;2083;51.034;6.996;2022-09-09T13:58:48;2.20;;;1.40;;
4138;SDS011;2083;51.034;6.996;2022-09-09T14:01:14;2.03;;;1.00;;
4138;SDS011;2083;51.034;6.996;2022-09-09T14:03:40;4.30;;;1.20;;
4138;SDS011;2083;51.034;6.996;2022-09-09T14:06:06;3.60;;;1.40;;
4138;SDS011;2083;51.034;6.996;2022-09-09T14:08:32;7.40;;;2.80;;
4138;SDS011;2083;51.034;6.996;2022-09-09T14:11:02;6.97;;;2.73;;
4138;SDS011;2083;51.034;6.996;2022-09-09T14:13:28;8.53;;;2.73;;
4138;SDS011;2083;51.034;6.996;2022-09-09T14:15:54;3.27;;;1.40;;
4138;SDS011;2083;51.034;6.996;2022-09-09T14:18:20;3.43;;;1.40;;
4138;SDS011;2083;51.034;6.996;2022-09-09T14:20:48;2.90;;;1.20;;
4138;SDS011;2083;51.034;6.996;2022-09-09T14:23:15;5.67;;;2.40;;
4138;SDS011;2083;51.034;6.996;2022-09-09T14:25:42;2.63;;;1.57;;
4138;SDS011;2083;51.034;6.996;2022-09-09T14:28:09;14.17;;;2.63;;
4138;SDS011;2083;51.034;6.996;2022-09-09T14:30:36;12.90;;;2.43;;
4138;SDS011;2083;51.034;6.996;2022-09-09T14:33:02;4.33;;;2.07;;
4138;SDS011;2083;51.034;6.996;2022-09-09T14:35:29;2.07;;;1.70;;
4138;SDS011;2083;51.034;6.996;2022-09-09T14:37:54;5.47;;;1.67;;
4138;SDS011;2083;51.034;6.996;2022-09-09T14:40:21;2.03;;;1.13;;
4138;SDS011;2083;51.034;6.996;2022-09-09T14:42:47;2.73;;;1.60;;
4138;SDS011;2083;51.034;6.996;2022-09-09T14:45:13;4.60;;;1.80;;
4138;SDS011;2083;51.034;6.996;2022-09-09T14:47:39;1.90;;;1.00;;
4138;SDS011;2083;51.034;6.996;2022-09-09T14:50:05;11.93;;;3.80;;
4138;SDS011;2083;51.034;6.996;2022-09-09T14:52:33;7.90;;;4.17;;
4138;SDS011;2083;51.034;6.996;2022-09-09T14:54:59;21.63;;;6.93;;
4138;SDS011;2083;51.034;6.996;2022-09-09T14:57:24;16.80;;;6.23;;
4138;SDS011;2083;51.034;6.996;2022-09-09T14:59:50;20.07;;;7.00;;
4138;SDS011;2083;51.034;6.996;2022-09-09T15:02:16;19.67;;;6.90;;
4138;SDS011;2083;51.034;6.996;2022-09-09T15:04:42;9.00;;;3.90;;
4138;SDS011;2083;51.034;6.996;2022-09-09T15:07:09;3.17;;;2.20;;
4138;SDS011;2083;51.034;6.996;2022-09-09T15:09:35;7.00;;;1.77;;
4138;SDS011;2083;51.034;6.996;2022-09-09T15:12:02;3.53;;;2.30;;
4138;SDS011;2083;51.034;6.996;2022-09-09T15:14:29;3.00;;;1.30;;
4138;SDS011;2083;51.034;6.996;2022-09-09T15:16:55;1.87;;;1.23;;
4138;SDS011;2083;51.034;6.996;2022-09-09T15:19:21;1.67;;;1.57;;
4138;SDS011;2083;51.034;6.996;2022-09-09T15:21:47;3.27;;;1.00;;
4138;SDS011;2083;51.034;6.996;2022-09-09T15:24:14;2.63;;;1.20;;
4138;SDS011;2083;51.034;6.996;2022-09-09T15:26:41;1.00;;;1.00;;
4138;SDS011;2083;51.034;6.996;2022-09-09T15:29:07;1.13;;;0.80;;
4138;SDS011;2083;51.034;6.996;2022-09-09T15:31:34;1.13;;;0.80;;
4138;SDS011;2083;51.034;6.996;2022-09-09T15:34:00;1.00;;;0.80;;
4138;SDS011;2083;51.034;6.996;2022-09-09T15:36:30;2.73;;;1.43;;
4138;SDS011;2083;51.034;6.996;2022-09-09T15:38:57;3.17;;;1.70;;
4138;SDS011;2083;51.034;6.996;2022-09-09T15:41:24;1.30;;;1.20;;
4138;SDS011;2083;51.034;6.996;2022-09-09T15:43:51;1.40;;;1.10;;
4138;SDS011;2083;51.034;6.996;2022-09-09T15:48:43;1.90;;;1.80;;
4138;SDS011;2083;51.034;6.996;2022-09-09T15:51:10;6.47;;;2.20;;
4138;SDS011;2083;51.034;6.996;2022-09-09T15:53:36;3.63;;;1.77;;
4138;SDS011;2083;51.034;6.996;2022-09-09T15:56:03;4.70;;;1.90;;
4138;SDS011;2083;51.034;6.996;2022-09-09T15:58:30;6.90;;;2.10;;
4138;SDS011;2083;51.034;6.996;2022-09-09T16:01:03;5.90;;;2.47;;
4138;SDS011;2083;51.034;6.996;2022-09-09T16:03:29;5.53;;;2.70;;
4138;SDS011;2083;51.034;6.996;2022-09-09T16:05:55;6.23;;;2.60;;
4138;SDS011;2083;51.034;6.996;2022-09-09T16:08:21;2.93;;;1.80;;
4138;SDS011;2083;51.034;6.996;2022-09-09T16:10:48;3.57;;;2.00;;
4138;SDS011;2083;51.034;6.996;2022-09-09T16:13:13;2.60;;;1.30;;
4138;SDS011;2083;51.034;6.996;2022-09-09T16:15:39;1.67;;;1.10;;
4138;SDS011;2083;51.034;6.996;2022-09-09T16:18:05;1.43;;;1.10;;
4138;SDS011;2083;51.034;6.996;2022-09-09T16:20:31;2.20;;;0.80;;
4138;SDS011;2083;51.034;6.996;2022-09-09T16:22:57;2.50;;;1.20;;
4138;SDS011;2083;51.034;6.996;2022-09-09T16:25:23;1.33;;;0.90;;
4138;SDS011;2083;51.034;6.996;2022-09-09T16:27:49;1.47;;;1.10;;
4138;SDS011;2083;51.034;6.996;2022-09-09T16:30:15;1.23;;;1.13;;
4138;SDS011;2083;51.034;6.996;2022-09-09T16:32:41;1.60;;;1.50;;
4138;SDS011;2083;51.034;6.996;2022-09-09T16:35:07;1.03;;;0.93;;
4138;SDS011;2083;51.034;6.996;2022-09-09T16:37:33;1.00;;;0.90;;
4138;SDS011;2083;51.034;6.996;2022-09-09T16:39:59;1.87;;;1.20;;
4138;SDS011;2083;51.034;6.996;2022-09-09T16:42:25;3.23;;;1.10;;
4138;SDS011;2083;51.034;6.996;2022-09-09T16:44:51;5.57;;;1.20;;
4138;SDS011;2083;51.034;6.996;2022-09-09T16:47:17;2.83;;;1.40;;
4138;SDS011;2083;51.034;6.996;2022-09-09T16:49:43;1.97;;;1.00;;
4138;SDS011;2083;51.034;6.996;2022-09-09T16:52:08;0.80;;;0.80;;
4138;SDS011;2083;51.034;6.996;2022-09-09T16:54:34;1.10;;;0.90;;
4138;SDS011;2083;51.034;6.996;2022-09-09T16:57:00;2.47;;;0.73;;
4138;SDS011;2083;51.034;6.996;2022-09-09T16:59:26;3.67;;;0.90;;
4138;SDS011;2083;51.034;6.996;2022-09-09T17:01:52;3.03;;;1.20;;
4138;SDS011;2083;51.034;6.996;2022-09-09T17:04:20;2.37;;;1.20;;
4138;SDS011;2083;51.034;6.996;2022-09-09T17:06:49;1.80;;;1.10;;
4138;SDS011;2083;51.034;6.996;2022-09-09T17:09:15;4.70;;;1.17;;